Slingerlands, NY (12159)

4:05 PM EST on February 25, 2017 (GMT -0500)
Slingerlands - Delmar | | Change Station
Active Advisory: Severe Thunderstorm Watch

Elev 256 ft 42.62 °N, 73.86 °W | Updated 12 seconds ago

Mostly Cloudy
Mostly Cloudy
66.4 °F
Feels Like 66.4 °F
N
0.4
Wind Variable Wind from SSW
Gusts 2.5 mph

Today
High -- | Low -- °F
--% Chance of Precip.
Yesterday
High -- | Low -- °F
Precip. -- in
Pressure 29.41 in
Visibility 10.0 miles
Clouds Scattered Clouds 4200 ft
Mostly Cloudy 4900 ft
Mostly Cloudy 20000 ft
Mostly Cloudy 27000 ft
Dew Point 51 °F
Humidity 57%
Rainfall 0.00 in
Snow Depth Not available.
6:37 AM 5:40 PM
Waning Crescent, 1% visible
METAR KALB 252051Z 16019G34KT 10SM SCT042 BKN049 BKN200 BKN270 19/10 A2941 RMK AO2 PK WND 17034/2051 SLP959 T01940100 58043
Pressure 29.41 in
Visibility 10.0 miles
Clouds Scattered Clouds 4200 ft
Mostly Cloudy 4900 ft
Mostly Cloudy 20000 ft
Mostly Cloudy 27000 ft
Dew Point 51 °F
Humidity 57%
Rainfall 0.00 in
Snow Depth Not available.
6:37 AM 5:40 PM
Waning Crescent, 1% visible
METAR KALB 252051Z 16019G34KT 10SM SCT042 BKN049 BKN200 BKN270 19/10 A2941 RMK AO2 PK WND 17034/2051 SLP959 T01940100 58043

Get Your Daily Forecast Email!

Thanks for signing up!

Be on the lookout for a verification email in your inbox.

You'll start receiving the daily forecast at 8 AM.

×

10-Day Weather Forecast

Almanac

Astronomy

Feb. 25, 2017 Rise Set
Actual Time
Civil Twilight
Nautical Twilight
Astronomical Twilight
Moon
Length of Visible Light
Length of Day
Tomorrow will be .
, % of the Moon is Illuminated

Today's Extremes

State Highs State Lows

Community

WunderPhotos

Upload Photos

1,962,540 photos uploaded!

WunderBlog® & News

Nearby

Air Quality

  Air Quality AQ Index Pollutant
Not available.

Snow Depth

Station Depth Elevation

Earthquake Activity

City Distance Mag. Time & Date
Minimum magnitude displayed is 2.5.

Coastal Water Temperatures

Place Temperature

Stations

Nearby Weather Stations

Station Location Temp. Windchill Dew Point Humidity Wind Precip. Elev Updated Type
                   

Watches & Warnings

Severe Thunderstorm Watch
Issued: 3:43 PM EST Feb. 25, 2017 – National Weather Service

Severe Thunderstorm Watch 40 remains in effect until 900 PM EST

NY
. New York counties included are

Albany Columbia Delaware
Dutchess Fulton Greene
Montgomery Orange Otsego
Putnam Rensselaer Rockland
Saratoga Schenectady Schoharie
Sullivan Ulster Warren
Washington